sensor_id;sensor_type;location;lat;lon;timestamp;temperature;humidity
15413;DHT22;7805;49.554;7.632;2022-08-01T00:01:43;23.40;99.40
15413;DHT22;7805;49.554;7.632;2022-08-01T00:04:09;23.40;99.20
15413;DHT22;7805;49.554;7.632;2022-08-01T00:06:35;23.40;99.30
15413;DHT22;7805;49.554;7.632;2022-08-01T00:09:00;23.30;99.80
15413;DHT22;7805;49.554;7.632;2022-08-01T00:11:26;23.30;99.70
15413;DHT22;7805;49.554;7.632;2022-08-01T00:13:52;23.20;99.90
15413;DHT22;7805;49.554;7.632;2022-08-01T00:16:18;23.20;99.60
15413;DHT22;7805;49.554;7.632;2022-08-01T00:18:43;23.30;99.50
15413;DHT22;7805;49.554;7.632;2022-08-01T00:21:09;23.30;99.80
15413;DHT22;7805;49.554;7.632;2022-08-01T00:23:35;23.40;99.90
15413;DHT22;7805;49.554;7.632;2022-08-01T00:26:00;23.10;99.90
15413;DHT22;7805;49.554;7.632;2022-08-01T00:28:26;23.00;99.90
15413;DHT22;7805;49.554;7.632;2022-08-01T00:30:52;23.00;99.90
15413;DHT22;7805;49.554;7.632;2022-08-01T00:33:18;22.90;99.90
15413;DHT22;7805;49.554;7.632;2022-08-01T00:35:43;22.90;99.90
15413;DHT22;7805;49.554;7.632;2022-08-01T00:38:09;22.90;99.90
15413;DHT22;7805;49.554;7.632;2022-08-01T00:40:36;22.90;99.90
15413;DHT22;7805;49.554;7.632;2022-08-01T00:43:02;22.90;99.90
15413;DHT22;7805;49.554;7.632;2022-08-01T00:45:28;22.90;99.90
15413;DHT22;7805;49.554;7.632;2022-08-01T00:47:53;23.00;99.90
15413;DHT22;7805;49.554;7.632;2022-08-01T00:50:19;23.00;99.90
15413;DHT22;7805;49.554;7.632;2022-08-01T00:52:44;23.00;99.90
15413;DHT22;7805;49.554;7.632;2022-08-01T00:55:12;23.00;99.90
15413;DHT22;7805;49.554;7.632;2022-08-01T00:57:39;23.00;99.90
15413;DHT22;7805;49.554;7.632;2022-08-01T01:00:06;23.10;99.90
15413;DHT22;7805;49.554;7.632;2022-08-01T01:02:32;23.10;99.90
15413;DHT22;7805;49.554;7.632;2022-08-01T01:04:58;23.10;99.90
15413;DHT22;7805;49.554;7.632;2022-08-01T01:08:03;23.10;99.90
15413;DHT22;7805;49.554;7.632;2022-08-01T01:10:37;23.00;99.90
15413;DHT22;7805;49.554;7.632;2022-08-01T01:13:11;22.90;99.90
15413;DHT22;7805;49.554;7.632;2022-08-01T01:15:47;22.90;99.90
15413;DHT22;7805;49.554;7.632;2022-08-01T01:18:47;22.90;99.90
15413;DHT22;7805;49.554;7.632;2022-08-01T01:29:31;22.50;99.90
15413;DHT22;7805;49.554;7.632;2022-08-01T01:32:07;22.60;99.90
15413;DHT22;7805;49.554;7.632;2022-08-01T01:34:37;22.70;99.90
15413;DHT22;7805;49.554;7.632;2022-08-01T01:37:07;22.40;99.90
15413;DHT22;7805;49.554;7.632;2022-08-01T01:39:35;22.40;99.90
15413;DHT22;7805;49.554;7.632;2022-08-01T01:42:04;22.40;99.90
15413;DHT22;7805;49.554;7.632;2022-08-01T01:44:31;22.40;99.90
15413;DHT22;7805;49.554;7.632;2022-08-01T01:46:59;22.40;99.90
15413;DHT22;7805;49.554;7.632;2022-08-01T01:49:26;22.40;99.90
15413;DHT22;7805;49.554;7.632;2022-08-01T01:51:55;22.40;99.90
15413;DHT22;7805;49.554;7.632;2022-08-01T01:54:23;22.50;99.90
15413;DHT22;7805;49.554;7.632;2022-08-01T01:56:50;22.50;99.90
15413;DHT22;7805;49.554;7.632;2022-08-01T01:59:21;22.50;99.90
15413;DHT22;7805;49.554;7.632;2022-08-01T02:01:51;22.40;99.90
15413;DHT22;7805;49.554;7.632;2022-08-01T02:04:18;22.40;99.90
15413;DHT22;7805;49.554;7.632;2022-08-01T02:06:46;22.40;99.90
15413;DHT22;7805;49.554;7.632;2022-08-01T02:09:15;22.30;99.90
15413;DHT22;7805;49.554;7.632;2022-08-01T02:11:43;22.30;99.90
15413;DHT22;7805;49.554;7.632;2022-08-01T02:14:10;22.30;99.90
15413;DHT22;7805;49.554;7.632;2022-08-01T02:16:39;22.20;99.90
15413;DHT22;7805;49.554;7.632;2022-08-01T02:19:05;22.80;99.90
15413;DHT22;7805;49.554;7.632;2022-08-01T02:21:37;22.10;99.90
15413;DHT22;7805;49.554;7.632;2022-08-01T02:24:12;22.00;99.90
15413;DHT22;7805;49.554;7.632;2022-08-01T02:26:42;21.90;99.90
15413;DHT22;7805;49.554;7.632;2022-08-01T02:29:11;21.90;99.90
15413;DHT22;7805;49.554;7.632;2022-08-01T02:31:39;21.80;99.90
15413;DHT22;7805;49.554;7.632;2022-08-01T02:34:09;21.80;99.90
15413;DHT22;7805;49.554;7.632;2022-08-01T02:36:35;21.70;99.90
15413;DHT22;7805;49.554;7.632;2022-08-01T02:39:08;21.60;99.90
15413;DHT22;7805;49.554;7.632;2022-08-01T02:41:39;21.60;99.90
15413;DHT22;7805;49.554;7.632;2022-08-01T02:44:08;21.60;99.90
15413;DHT22;7805;49.554;7.632;2022-08-01T02:46:56;21.60;99.90
15413;DHT22;7805;49.554;7.632;2022-08-01T02:49:23;21.60;99.90
15413;DHT22;7805;49.554;7.632;2022-08-01T02:51:53;21.60;99.90
15413;DHT22;7805;49.554;7.632;2022-08-01T02:54:21;21.50;99.90
15413;DHT22;7805;49.554;7.632;2022-08-01T02:56:48;21.40;99.90
15413;DHT22;7805;49.554;7.632;2022-08-01T02:59:18;21.40;99.90
15413;DHT22;7805;49.554;7.632;2022-08-01T03:01:45;21.40;99.90
15413;DHT22;7805;49.554;7.632;2022-08-01T03:04:11;21.40;99.90
15413;DHT22;7805;49.554;7.632;2022-08-01T03:06:38;21.40;99.90
15413;DHT22;7805;49.554;7.632;2022-08-01T03:09:04;21.30;99.90
15413;DHT22;7805;49.554;7.632;2022-08-01T03:11:32;21.10;99.90
15413;DHT22;7805;49.554;7.632;2022-08-01T03:14:04;21.10;99.90
15413;DHT22;7805;49.554;7.632;2022-08-01T03:16:31;21.00;99.90
15413;DHT22;7805;49.554;7.632;2022-08-01T03:18:58;20.90;99.90
15413;DHT22;7805;49.554;7.632;2022-08-01T03:21:28;20.90;99.90
15413;DHT22;7805;49.554;7.632;2022-08-01T03:23:57;20.80;99.90
15413;DHT22;7805;49.554;7.632;2022-08-01T03:26:30;20.80;99.90
15413;DHT22;7805;49.554;7.632;2022-08-01T03:29:01;20.80;99.90
15413;DHT22;7805;49.554;7.632;2022-08-01T03:31:28;20.80;99.90
15413;DHT22;7805;49.554;7.632;2022-08-01T03:33:54;20.80;99.90
15413;DHT22;7805;49.554;7.632;2022-08-01T03:36:24;20.70;99.90
15413;DHT22;7805;49.554;7.632;2022-08-01T03:38:52;20.80;99.90
15413;DHT22;7805;49.554;7.632;2022-08-01T03:41:21;20.70;99.90
15413;DHT22;7805;49.554;7.632;2022-08-01T03:43:56;20.70;99.90
15413;DHT22;7805;49.554;7.632;2022-08-01T03:46:32;20.70;99.90
15413;DHT22;7805;49.554;7.632;2022-08-01T03:49:04;20.60;99.90
15413;DHT22;7805;49.554;7.632;2022-08-01T03:51:31;20.60;99.90
15413;DHT22;7805;49.554;7.632;2022-08-01T03:53:59;20.50;99.90
15413;DHT22;7805;49.554;7.632;2022-08-01T03:56:26;20.40;99.90
15413;DHT22;7805;49.554;7.632;2022-08-01T03:58:53;20.30;99.90
15413;DHT22;7805;49.554;7.632;2022-08-01T04:01:19;20.30;99.90
15413;DHT22;7805;49.554;7.632;2022-08-01T04:03:46;20.30;99.90
15413;DHT22;7805;49.554;7.632;2022-08-01T04:06:12;20.20;99.90
15413;DHT22;7805;49.554;7.632;2022-08-01T04:08:39;20.20;99.90
15413;DHT22;7805;49.554;7.632;2022-08-01T04:11:08;20.20;99.90
15413;DHT22;7805;49.554;7.632;2022-08-01T04:13:34;20.30;99.90
15413;DHT22;7805;49.554;7.632;2022-08-01T04:16:00;20.30;99.90
15413;DHT22;7805;49.554;7.632;2022-08-01T04:18:26;20.30;99.90
15413;DHT22;7805;49.554;7.632;2022-08-01T04:20:52;20.40;99.90
15413;DHT22;7805;49.554;7.632;2022-08-01T04:23:20;20.30;99.90
15413;DHT22;7805;49.554;7.632;2022-08-01T04:25:49;19.30;99.90
15413;DHT22;7805;49.554;7.632;2022-08-01T04:28:16;20.40;99.90
15413;DHT22;7805;49.554;7.632;2022-08-01T04:30:44;20.50;99.90
15413;DHT22;7805;49.554;7.632;2022-08-01T04:33:13;20.50;99.90
15413;DHT22;7805;49.554;7.632;2022-08-01T04:35:44;20.50;99.90
15413;DHT22;7805;49.554;7.632;2022-08-01T04:38:12;20.50;99.90
15413;DHT22;7805;49.554;7.632;2022-08-01T04:40:40;20.50;99.90
15413;DHT22;7805;49.554;7.632;2022-08-01T04:43:06;20.50;99.90
15413;DHT22;7805;49.554;7.632;2022-08-01T04:45:33;20.40;99.90
15413;DHT22;7805;49.554;7.632;2022-08-01T04:48:00;20.50;99.90
15413;DHT22;7805;49.554;7.632;2022-08-01T04:50:26;20.50;99.90
15413;DHT22;7805;49.554;7.632;2022-08-01T04:52:51;20.50;99.90
15413;DHT22;7805;49.554;7.632;2022-08-01T04:55:17;20.50;99.90
15413;DHT22;7805;49.554;7.632;2022-08-01T04:57:44;20.50;99.90
15413;DHT22;7805;49.554;7.632;2022-08-01T05:00:10;20.50;99.90
15413;DHT22;7805;49.554;7.632;2022-08-01T05:02:37;20.50;99.90
15413;DHT22;7805;49.554;7.632;2022-08-01T05:05:03;20.50;99.90
15413;DHT22;7805;49.554;7.632;2022-08-01T05:07:31;20.40;99.90
15413;DHT22;7805;49.554;7.632;2022-08-01T05:09:57;20.40;99.90
15413;DHT22;7805;49.554;7.632;2022-08-01T05:12:22;20.50;99.90
15413;DHT22;7805;49.554;7.632;2022-08-01T05:14:48;20.50;99.90
15413;DHT22;7805;49.554;7.632;2022-08-01T05:17:13;20.50;99.90
15413;DHT22;7805;49.554;7.632;2022-08-01T05:19:40;20.50;99.90
15413;DHT22;7805;49.554;7.632;2022-08-01T05:22:07;20.50;99.90
15413;DHT22;7805;49.554;7.632;2022-08-01T05:24:35;20.60;99.90
15413;DHT22;7805;49.554;7.632;2022-08-01T05:27:01;20.60;99.90
15413;DHT22;7805;49.554;7.632;2022-08-01T05:29:27;20.40;99.90
15413;DHT22;7805;49.554;7.632;2022-08-01T05:31:53;20.30;99.90
15413;DHT22;7805;49.554;7.632;2022-08-01T05:34:20;20.30;99.90
15413;DHT22;7805;49.554;7.632;2022-08-01T05:36:46;20.40;99.90
15413;DHT22;7805;49.554;7.632;2022-08-01T05:39:12;20.70;99.90
15413;DHT22;7805;49.554;7.632;2022-08-01T05:41:38;20.90;99.90
15413;DHT22;7805;49.554;7.632;2022-08-01T05:44:04;21.30;99.90
15413;DHT22;7805;49.554;7.632;2022-08-01T05:46:31;21.50;99.90
15413;DHT22;7805;49.554;7.632;2022-08-01T05:49:00;21.60;99.90
15413;DHT22;7805;49.554;7.632;2022-08-01T05:51:26;20.80;99.90
15413;DHT22;7805;49.554;7.632;2022-08-01T05:53:53;22.30;99.90
15413;DHT22;7805;49.554;7.632;2022-08-01T05:56:19;22.50;99.90
15413;DHT22;7805;49.554;7.632;2022-08-01T05:58:46;22.70;99.90
15413;DHT22;7805;49.554;7.632;2022-08-01T06:01:11;22.90;99.90
15413;DHT22;7805;49.554;7.632;2022-08-01T06:03:37;23.10;99.90
15413;DHT22;7805;49.554;7.632;2022-08-01T06:06:03;23.20;99.90
15413;DHT22;7805;49.554;7.632;2022-08-01T06:08:29;23.40;99.90
15413;DHT22;7805;49.554;7.632;2022-08-01T06:10:54;23.70;99.90
15413;DHT22;7805;49.554;7.632;2022-08-01T06:13:20;23.90;99.90
15413;DHT22;7805;49.554;7.632;2022-08-01T06:15:46;24.00;99.90
15413;DHT22;7805;49.554;7.632;2022-08-01T06:18:12;24.00;99.90
15413;DHT22;7805;49.554;7.632;2022-08-01T06:20:38;24.00;99.90
15413;DHT22;7805;49.554;7.632;2022-08-01T06:23:04;24.00;99.90
15413;DHT22;7805;49.554;7.632;2022-08-01T06:25:30;24.30;99.90
15413;DHT22;7805;49.554;7.632;2022-08-01T06:27:55;24.60;99.90
15413;DHT22;7805;49.554;7.632;2022-08-01T06:30:21;24.80;99.90
15413;DHT22;7805;49.554;7.632;2022-08-01T06:32:47;24.80;99.90
15413;DHT22;7805;49.554;7.632;2022-08-01T06:35:13;24.60;99.80
15413;DHT22;7805;49.554;7.632;2022-08-01T06:37:39;24.40;99.90
15413;DHT22;7805;49.554;7.632;2022-08-01T06:40:07;24.40;99.90
15413;DHT22;7805;49.554;7.632;2022-08-01T06:42:33;24.30;99.90
15413;DHT22;7805;49.554;7.632;2022-08-01T06:45:12;24.30;99.90
15413;DHT22;7805;49.554;7.632;2022-08-01T06:47:39;24.40;99.90
15413;DHT22;7805;49.554;7.632;2022-08-01T06:50:06;24.50;99.90
15413;DHT22;7805;49.554;7.632;2022-08-01T06:52:32;24.50;99.70
15413;DHT22;7805;49.554;7.632;2022-08-01T06:54:58;24.70;99.70
15413;DHT22;7805;49.554;7.632;2022-08-01T06:57:24;24.90;99.50
15413;DHT22;7805;49.554;7.632;2022-08-01T06:59:50;25.10;99.40
15413;DHT22;7805;49.554;7.632;2022-08-01T07:02:16;25.60;99.20
15413;DHT22;7805;49.554;7.632;2022-08-01T07:04:41;25.80;98.50
15413;DHT22;7805;49.554;7.632;2022-08-01T07:07:07;26.00;98.20
15413;DHT22;7805;49.554;7.632;2022-08-01T07:09:33;25.90;97.80
15413;DHT22;7805;49.554;7.632;2022-08-01T07:11:59;25.80;97.80
15413;DHT22;7805;49.554;7.632;2022-08-01T07:14:24;25.60;97.90
15413;DHT22;7805;49.554;7.632;2022-08-01T07:16:50;25.60;98.00
15413;DHT22;7805;49.554;7.632;2022-08-01T07:19:16;25.50;97.90
15413;DHT22;7805;49.554;7.632;2022-08-01T07:21:41;25.50;98.10
15413;DHT22;7805;49.554;7.632;2022-08-01T07:24:09;25.70;98.40
15413;DHT22;7805;49.554;7.632;2022-08-01T07:26:35;26.00;98.00
15413;DHT22;7805;49.554;7.632;2022-08-01T07:29:01;25.90;97.60
15413;DHT22;7805;49.554;7.632;2022-08-01T07:31:28;25.80;97.70
15413;DHT22;7805;49.554;7.632;2022-08-01T07:33:53;25.80;97.70
15413;DHT22;7805;49.554;7.632;2022-08-01T07:36:19;25.90;97.80
15413;DHT22;7805;49.554;7.632;2022-08-01T07:38:45;26.00;97.70
15413;DHT22;7805;49.554;7.632;2022-08-01T07:41:11;25.80;97.70
15413;DHT22;7805;49.554;7.632;2022-08-01T07:43:37;26.10;97.50
15413;DHT22;7805;49.554;7.632;2022-08-01T07:46:04;26.20;97.40
15413;DHT22;7805;49.554;7.632;2022-08-01T07:48:29;26.30;96.80
15413;DHT22;7805;49.554;7.632;2022-08-01T07:50:55;26.30;97.00
15413;DHT22;7805;49.554;7.632;2022-08-01T07:53:21;26.20;97.00
15413;DHT22;7805;49.554;7.632;2022-08-01T07:55:47;25.90;97.10
15413;DHT22;7805;49.554;7.632;2022-08-01T07:58:13;25.60;97.50
15413;DHT22;7805;49.554;7.632;2022-08-01T08:00:39;25.20;98.10
15413;DHT22;7805;49.554;7.632;2022-08-01T08:03:05;25.30;98.20
15413;DHT22;7805;49.554;7.632;2022-08-01T08:05:31;25.60;98.10
15413;DHT22;7805;49.554;7.632;2022-08-01T08:08:09;25.80;97.90
15413;DHT22;7805;49.554;7.632;2022-08-01T08:10:36;26.00;97.60
15413;DHT22;7805;49.554;7.632;2022-08-01T08:13:02;26.20;97.40
15413;DHT22;7805;49.554;7.632;2022-08-01T08:15:28;26.10;97.20
15413;DHT22;7805;49.554;7.632;2022-08-01T08:17:54;26.10;97.20
15413;DHT22;7805;49.554;7.632;2022-08-01T08:20:20;26.30;97.20
15413;DHT22;7805;49.554;7.632;2022-08-01T08:22:50;26.60;97.10
15413;DHT22;7805;49.554;7.632;2022-08-01T08:25:16;27.00;96.70
15413;DHT22;7805;49.554;7.632;2022-08-01T08:27:41;27.20;96.20
15413;DHT22;7805;49.554;7.632;2022-08-01T08:30:07;27.10;96.00
15413;DHT22;7805;49.554;7.632;2022-08-01T08:32:34;27.10;95.70
15413;DHT22;7805;49.554;7.632;2022-08-01T08:35:00;27.00;95.60
15413;DHT22;7805;49.554;7.632;2022-08-01T08:37:25;27.10;95.90
15413;DHT22;7805;49.554;7.632;2022-08-01T08:39:51;27.00;95.90
15413;DHT22;7805;49.554;7.632;2022-08-01T08:42:18;27.40;95.90
15413;DHT22;7805;49.554;7.632;2022-08-01T08:44:44;27.70;94.90
15413;DHT22;7805;49.554;7.632;2022-08-01T08:47:11;27.90;94.80
15413;DHT22;7805;49.554;7.632;2022-08-01T08:49:37;28.10;94.80
15413;DHT22;7805;49.554;7.632;2022-08-01T08:52:04;28.50;94.00
15413;DHT22;7805;49.554;7.632;2022-08-01T08:54:31;28.40;93.30
15413;DHT22;7805;49.554;7.632;2022-08-01T08:56:59;28.50;92.90
15413;DHT22;7805;49.554;7.632;2022-08-01T08:59:25;28.70;92.80
15413;DHT22;7805;49.554;7.632;2022-08-01T09:01:51;29.10;91.70
15413;DHT22;7805;49.554;7.632;2022-08-01T09:04:17;28.70;91.80
15413;DHT22;7805;49.554;7.632;2022-08-01T09:06:43;28.90;92.00
15413;DHT22;7805;49.554;7.632;2022-08-01T09:09:10;29.10;91.50
15413;DHT22;7805;49.554;7.632;2022-08-01T09:11:36;29.00;91.50
15413;DHT22;7805;49.554;7.632;2022-08-01T09:14:06;29.00;91.60
15413;DHT22;7805;49.554;7.632;2022-08-01T09:16:33;29.20;91.30
15413;DHT22;7805;49.554;7.632;2022-08-01T09:19:19;28.90;91.30
15413;DHT22;7805;49.554;7.632;2022-08-01T09:21:59;28.70;91.20
15413;DHT22;7805;49.554;7.632;2022-08-01T09:24:26;28.70;91.40
15413;DHT22;7805;49.554;7.632;2022-08-01T09:26:52;28.40;91.30
15413;DHT22;7805;49.554;7.632;2022-08-01T09:29:30;28.10;91.80
15413;DHT22;7805;49.554;7.632;2022-08-01T09:31:57;28.10;91.80
15413;DHT22;7805;49.554;7.632;2022-08-01T09:34:31;28.00;92.00
15413;DHT22;7805;49.554;7.632;2022-08-01T09:36:59;28.20;92.00
15413;DHT22;7805;49.554;7.632;2022-08-01T09:39:35;28.50;92.20
15413;DHT22;7805;49.554;7.632;2022-08-01T09:42:25;29.00;91.70
15413;DHT22;7805;49.554;7.632;2022-08-01T09:44:51;30.10;90.90
15413;DHT22;7805;49.554;7.632;2022-08-01T09:47:18;29.00;91.20
15413;DHT22;7805;49.554;7.632;2022-08-01T09:49:53;29.40;90.90
15413;DHT22;7805;49.554;7.632;2022-08-01T09:52:24;29.40;90.20
15413;DHT22;7805;49.554;7.632;2022-08-01T09:54:55;29.00;90.30
15413;DHT22;7805;49.554;7.632;2022-08-01T09:57:22;29.00;90.50
15413;DHT22;7805;49.554;7.632;2022-08-01T09:59:49;29.10;90.40
15413;DHT22;7805;49.554;7.632;2022-08-01T10:02:35;29.20;90.00
15413;DHT22;7805;49.554;7.632;2022-08-01T10:05:05;29.40;88.40
15413;DHT22;7805;49.554;7.632;2022-08-01T10:07:31;29.40;88.00
15413;DHT22;7805;49.554;7.632;2022-08-01T10:10:12;29.20;87.90
15413;DHT22;7805;49.554;7.632;2022-08-01T10:12:40;29.20;88.60
15413;DHT22;7805;49.554;7.632;2022-08-01T10:15:06;29.30;88.10
15413;DHT22;7805;49.554;7.632;2022-08-01T10:17:34;29.30;87.90
15413;DHT22;7805;49.554;7.632;2022-08-01T10:20:01;29.20;87.80
15413;DHT22;7805;49.554;7.632;2022-08-01T10:22:30;29.10;88.00
15413;DHT22;7805;49.554;7.632;2022-08-01T10:24:56;29.00;87.90
15413;DHT22;7805;49.554;7.632;2022-08-01T10:27:29;29.00;87.60
15413;DHT22;7805;49.554;7.632;2022-08-01T10:30:03;29.20;87.20
15413;DHT22;7805;49.554;7.632;2022-08-01T10:32:31;29.20;86.60
15413;DHT22;7805;49.554;7.632;2022-08-01T10:34:58;29.40;87.00
15413;DHT22;7805;49.554;7.632;2022-08-01T10:37:24;29.50;86.30
15413;DHT22;7805;49.554;7.632;2022-08-01T10:39:51;29.50;85.90
15413;DHT22;7805;49.554;7.632;2022-08-01T10:42:18;29.50;85.00
15413;DHT22;7805;49.554;7.632;2022-08-01T10:44:44;29.10;85.20
15413;DHT22;7805;49.554;7.632;2022-08-01T10:47:17;29.20;86.00
15413;DHT22;7805;49.554;7.632;2022-08-01T10:50:02;29.40;85.60
15413;DHT22;7805;49.554;7.632;2022-08-01T10:52:29;29.60;85.10
15413;DHT22;7805;49.554;7.632;2022-08-01T10:55:06;29.70;84.30
15413;DHT22;7805;49.554;7.632;2022-08-01T10:57:54;29.80;83.20
15413;DHT22;7805;49.554;7.632;2022-08-01T11:00:21;29.70;83.40
15413;DHT22;7805;49.554;7.632;2022-08-01T11:02:58;29.60;83.60
15413;DHT22;7805;49.554;7.632;2022-08-01T11:05:27;30.00;82.80
15413;DHT22;7805;49.554;7.632;2022-08-01T11:07:54;30.50;82.90
15413;DHT22;7805;49.554;7.632;2022-08-01T11:12:50;31.00;80.00
15413;DHT22;7805;49.554;7.632;2022-08-01T11:15:17;31.20;80.10
15413;DHT22;7805;49.554;7.632;2022-08-01T11:17:50;31.20;79.50
15413;DHT22;7805;49.554;7.632;2022-08-01T11:30:45;30.70;77.90
15413;DHT22;7805;49.554;7.632;2022-08-01T11:33:12;30.50;78.80
15413;DHT22;7805;49.554;7.632;2022-08-01T11:38:48;30.50;78.70
15413;DHT22;7805;49.554;7.632;2022-08-01T11:44:02;31.00;77.00
15413;DHT22;7805;49.554;7.632;2022-08-01T11:54:40;31.50;73.40
15413;DHT22;7805;49.554;7.632;2022-08-01T11:57:14;31.10;74.60
15413;DHT22;7805;49.554;7.632;2022-08-01T11:59:53;31.00;74.90
15413;DHT22;7805;49.554;7.632;2022-08-01T12:05:06;30.80;75.20
15413;DHT22;7805;49.554;7.632;2022-08-01T12:07:34;30.70;74.30
15413;DHT22;7805;49.554;7.632;2022-08-01T12:10:14;30.90;74.90
15413;DHT22;7805;49.554;7.632;2022-08-01T12:12:55;31.00;73.80
15413;DHT22;7805;49.554;7.632;2022-08-01T12:15:23;31.10;73.20
15413;DHT22;7805;49.554;7.632;2022-08-01T12:17:53;30.90;73.70
15413;DHT22;7805;49.554;7.632;2022-08-01T12:20:22;30.90;73.70
15413;DHT22;7805;49.554;7.632;2022-08-01T12:22:53;30.80;74.00
15413;DHT22;7805;49.554;7.632;2022-08-01T12:25:19;30.70;74.00
15413;DHT22;7805;49.554;7.632;2022-08-01T12:27:46;30.70;74.60
15413;DHT22;7805;49.554;7.632;2022-08-01T12:30:17;30.70;74.30
15413;DHT22;7805;49.554;7.632;2022-08-01T12:32:45;31.00;74.00
15413;DHT22;7805;49.554;7.632;2022-08-01T12:35:12;31.00;73.50
15413;DHT22;7805;49.554;7.632;2022-08-01T12:37:42;30.90;73.30
15413;DHT22;7805;49.554;7.632;2022-08-01T12:42:53;31.20;72.80
15413;DHT22;7805;49.554;7.632;2022-08-01T12:45:21;31.70;72.30
15413;DHT22;7805;49.554;7.632;2022-08-01T12:47:49;32.10;71.10
15413;DHT22;7805;49.554;7.632;2022-08-01T12:50:19;32.30;69.70
15413;DHT22;7805;49.554;7.632;2022-08-01T12:52:45;32.20;69.50
15413;DHT22;7805;49.554;7.632;2022-08-01T12:57:41;32.00;68.90
15413;DHT22;7805;49.554;7.632;2022-08-01T13:00:15;31.90;69.70
15413;DHT22;7805;49.554;7.632;2022-08-01T13:02:41;31.90;69.70
15413;DHT22;7805;49.554;7.632;2022-08-01T13:05:07;31.70;69.70
15413;DHT22;7805;49.554;7.632;2022-08-01T13:07:49;31.90;70.10
15413;DHT22;7805;49.554;7.632;2022-08-01T13:10:37;31.70;69.30
15413;DHT22;7805;49.554;7.632;2022-08-01T13:13:02;31.60;69.90
15413;DHT22;7805;49.554;7.632;2022-08-01T13:15:30;31.40;69.10
15413;DHT22;7805;49.554;7.632;2022-08-01T13:18:01;31.30;69.50
15413;DHT22;7805;49.554;7.632;2022-08-01T13:20:46;31.50;69.60
15413;DHT22;7805;49.554;7.632;2022-08-01T13:23:16;32.10;69.40
15413;DHT22;7805;49.554;7.632;2022-08-01T13:25:55;32.10;67.20
15413;DHT22;7805;49.554;7.632;2022-08-01T13:28:25;31.60;67.50
15413;DHT22;7805;49.554;7.632;2022-08-01T13:30:53;31.40;68.60
15413;DHT22;7805;49.554;7.632;2022-08-01T13:33:19;31.00;68.90
15413;DHT22;7805;49.554;7.632;2022-08-01T13:35:45;30.90;69.80
15413;DHT22;7805;49.554;7.632;2022-08-01T13:38:12;30.60;69.80
15413;DHT22;7805;49.554;7.632;2022-08-01T13:40:38;30.70;70.90
15413;DHT22;7805;49.554;7.632;2022-08-01T13:43:03;30.80;70.10
15413;DHT22;7805;49.554;7.632;2022-08-01T13:45:29;30.90;69.80
15413;DHT22;7805;49.554;7.632;2022-08-01T13:47:55;30.90;69.90
15413;DHT22;7805;49.554;7.632;2022-08-01T13:50:20;30.90;69.70
15413;DHT22;7805;49.554;7.632;2022-08-01T13:52:46;31.00;69.80
15413;DHT22;7805;49.554;7.632;2022-08-01T13:55:12;31.00;69.90
15413;DHT22;7805;49.554;7.632;2022-08-01T13:57:37;31.10;69.70
15413;DHT22;7805;49.554;7.632;2022-08-01T14:00:05;31.10;69.70
15413;DHT22;7805;49.554;7.632;2022-08-01T14:02:31;31.30;69.60
15413;DHT22;7805;49.554;7.632;2022-08-01T14:04:57;31.10;69.40
15413;DHT22;7805;49.554;7.632;2022-08-01T14:07:24;31.00;69.50
15413;DHT22;7805;49.554;7.632;2022-08-01T14:09:50;31.00;69.50
15413;DHT22;7805;49.554;7.632;2022-08-01T14:12:15;31.20;69.90
15413;DHT22;7805;49.554;7.632;2022-08-01T14:14:41;31.60;69.90
15413;DHT22;7805;49.554;7.632;2022-08-01T14:17:06;31.80;69.40
15413;DHT22;7805;49.554;7.632;2022-08-01T14:19:32;32.10;69.00
15413;DHT22;7805;49.554;7.632;2022-08-01T14:21:58;32.00;68.10
15413;DHT22;7805;49.554;7.632;2022-08-01T14:24:23;32.00;68.00
15413;DHT22;7805;49.554;7.632;2022-08-01T14:26:51;31.90;68.20
15413;DHT22;7805;49.554;7.632;2022-08-01T14:29:17;31.90;68.00
15413;DHT22;7805;49.554;7.632;2022-08-01T14:31:42;31.90;68.10
15413;DHT22;7805;49.554;7.632;2022-08-01T14:34:08;31.90;67.90
15413;DHT22;7805;49.554;7.632;2022-08-01T14:36:34;31.90;68.30
15413;DHT22;7805;49.554;7.632;2022-08-01T14:38:59;31.80;67.60
15413;DHT22;7805;49.554;7.632;2022-08-01T14:41:25;31.60;67.90
15413;DHT22;7805;49.554;7.632;2022-08-01T14:43:50;31.10;68.70
15413;DHT22;7805;49.554;7.632;2022-08-01T14:46:16;31.00;69.30
15413;DHT22;7805;49.554;7.632;2022-08-01T14:48:42;31.00;69.70
15413;DHT22;7805;49.554;7.632;2022-08-01T14:51:07;31.00;69.50
15413;DHT22;7805;49.554;7.632;2022-08-01T14:53:33;31.00;69.50
15413;DHT22;7805;49.554;7.632;2022-08-01T14:56:01;30.80;70.10
15413;DHT22;7805;49.554;7.632;2022-08-01T14:58:27;30.70;70.10
15413;DHT22;7805;49.554;7.632;2022-08-01T15:00:52;30.60;70.20
15413;DHT22;7805;49.554;7.632;2022-08-01T15:03:20;30.60;70.50
15413;DHT22;7805;49.554;7.632;2022-08-01T15:05:46;30.50;70.70
15413;DHT22;7805;49.554;7.632;2022-08-01T15:08:12;30.20;70.70
15413;DHT22;7805;49.554;7.632;2022-08-01T15:10:37;30.20;71.90
15413;DHT22;7805;49.554;7.632;2022-08-01T15:13:03;30.10;71.30
15413;DHT22;7805;49.554;7.632;2022-08-01T15:15:29;30.10;71.40
15413;DHT22;7805;49.554;7.632;2022-08-01T15:17:56;29.90;71.70
15413;DHT22;7805;49.554;7.632;2022-08-01T15:20:22;29.70;72.40
15413;DHT22;7805;49.554;7.632;2022-08-01T15:22:47;29.60;72.80
15413;DHT22;7805;49.554;7.632;2022-08-01T15:25:13;29.60;73.20
15413;DHT22;7805;49.554;7.632;2022-08-01T15:27:39;29.40;73.70
15413;DHT22;7805;49.554;7.632;2022-08-01T15:30:05;29.40;74.30
15413;DHT22;7805;49.554;7.632;2022-08-01T15:32:31;29.40;74.40
15413;DHT22;7805;49.554;7.632;2022-08-01T15:34:56;29.40;74.60
15413;DHT22;7805;49.554;7.632;2022-08-01T15:37:22;29.30;74.50
15413;DHT22;7805;49.554;7.632;2022-08-01T15:39:48;29.10;75.10
15413;DHT22;7805;49.554;7.632;2022-08-01T15:42:16;29.00;75.80
15413;DHT22;7805;49.554;7.632;2022-08-01T15:44:42;29.00;76.40
15413;DHT22;7805;49.554;7.632;2022-08-01T15:47:09;28.90;76.60
15413;DHT22;7805;49.554;7.632;2022-08-01T15:49:36;28.80;77.00
15413;DHT22;7805;49.554;7.632;2022-08-01T15:52:08;28.70;77.80
15413;DHT22;7805;49.554;7.632;2022-08-01T15:54:34;28.50;79.00
15413;DHT22;7805;49.554;7.632;2022-08-01T15:57:01;28.40;79.20
15413;DHT22;7805;49.554;7.632;2022-08-01T15:59:26;28.50;79.80
15413;DHT22;7805;49.554;7.632;2022-08-01T16:01:52;28.50;80.00
15413;DHT22;7805;49.554;7.632;2022-08-01T16:04:18;28.50;80.40
15413;DHT22;7805;49.554;7.632;2022-08-01T16:06:45;28.40;80.60
15413;DHT22;7805;49.554;7.632;2022-08-01T16:09:11;28.20;81.40
15413;DHT22;7805;49.554;7.632;2022-08-01T16:11:37;28.00;81.90
15413;DHT22;7805;49.554;7.632;2022-08-01T16:14:02;28.00;82.60
15413;DHT22;7805;49.554;7.632;2022-08-01T16:16:29;28.00;83.00
15413;DHT22;7805;49.554;7.632;2022-08-01T16:18:54;27.90;83.10
15413;DHT22;7805;49.554;7.632;2022-08-01T16:21:20;27.90;83.60
15413;DHT22;7805;49.554;7.632;2022-08-01T16:23:48;28.20;83.90
15413;DHT22;7805;49.554;7.632;2022-08-01T16:26:13;28.00;84.20
15413;DHT22;7805;49.554;7.632;2022-08-01T16:28:39;28.10;83.90
15413;DHT22;7805;49.554;7.632;2022-08-01T16:31:05;28.20;83.80
15413;DHT22;7805;49.554;7.632;2022-08-01T16:33:32;28.10;83.70